Time;durP1;ratioP1;P1;durP2;ratioP2;P2;SDS_P1;SDS_P2;PMS_P1;PMS_P2;Temp;Humidity;BMP_temperature;BMP_pressure;BME280_temperature;BME280_humidity;BME280_pressure;Samples;Min_cycle;Max_cycle;Signal;HPM_P1;HPM_P2
2023/12/03 00:02:22;;;;;;;;;;;;;;;;;;5132456;28;19958;-45
2023/12/03 00:04:48;;;;;;;;;;;;;;;;;;5133092;28;19923;-45
2023/12/03 00:07:13;;;;;;;;;;;;;;;;;;5132739;28;19989;-47
2023/12/03 00:09:39;;;;;;;;;;;;;;;;;;5132730;28;19967;-47
2023/12/03 00:12:04;;;;;;;;;;;;;;;;;;5133016;28;19946;-47
2023/12/03 00:14:29;;;;;;;;;;;;;;;;;;5132803;28;20335;-46
2023/12/03 00:16:55;;;;;;;;;;;;;;;;;;5132851;28;19986;-45
2023/12/03 00:19:20;;;;;;;;;;;;;;;;;;5132627;28;20019;-45
2023/12/03 00:21:46;;;;;;;;;;;;;;;;;;5131933;28;19970;-45
2023/12/03 00:24:11;;;;;;;;;;;;;;;;;;5130200;28;19981;-43
2023/12/03 00:26:37;;;;;;;;;;;;;;;;;;5132446;28;19972;-46
2023/12/03 00:29:03;;;;;;;;;;;;;;;;;;5132834;27;19934;-43
2023/12/03 00:31:28;;;;;;;;;;;;;;;;;;5136084;28;19923;-47
2023/12/03 00:33:54;;;;;;;;;;;;;;;;;;5135911;28;20390;-47
2023/12/03 00:36:19;;;;;;;;;;;;;;;;;;5135483;28;20394;-44
2023/12/03 00:38:45;;;;;;;;;;;;;;;;;;5135295;28;20268;-44
2023/12/03 00:41:10;;;;;;;;;;;;;;;;;;5135710;28;19959;-48
2023/12/03 00:43:36;;;;;;;;;;;;;;;;;;5134813;28;20006;-45
2023/12/03 00:46:02;;;;;;;;;;;;;;;;;;5135624;28;20019;-44
2023/12/03 00:48:28;;;;;;;;;;;;;;;;;;5135958;28;20378;-42
2023/12/03 00:50:53;;;;;;;;;;;;;;;;;;5136166;28;20137;-45
2023/12/03 00:53:19;;;;;;;;;;;;;;;;;;5135774;28;19930;-46
2023/12/03 00:55:44;;;;;;;;;;;;;;;;;;5135473;28;20042;-43
2023/12/03 00:58:10;;;;;;;;;;;;;;;;;;5135186;28;20299;-48
2023/12/03 01:00:35;;;;;;;;;;;;;;;;;;5135308;28;20006;-47
2023/12/03 01:03:01;;;;;;;;;;;;;;;;;;5134891;28;19924;-45
2023/12/03 01:05:26;;;;;;;;;;;;;;;;;;5135662;28;19938;-41
2023/12/03 01:07:51;;;;;;;;;;;;;;;;;;5135030;28;20302;-45
2023/12/03 01:10:17;;;;;;;;;;;;;;;;;;5135433;28;19967;-46
2023/12/03 01:12:42;;;;;;;;;;;;;;;;;;5135510;28;19970;-48
2023/12/03 01:15:08;;;;;;;;;;;;;;;;;;5134737;28;20010;-43
2023/12/03 01:17:33;;;;;;;;;;;;;;;;;;5135027;28;19963;-43
2023/12/03 01:19:59;;;;;;;;;;;;;;;;;;5134656;28;20298;-46
2023/12/03 01:22:24;;;;;;;;;;;;;;;;;;5133848;28;19955;-47
2023/12/03 01:24:49;;;;;;;;;;;;;;;;;;5134035;28;19962;-44
2023/12/03 01:27:15;;;;;;;;;;;;;;;;;;5134969;28;19945;-46
2023/12/03 01:29:40;;;;;;;;;;;;;;;;;;5134730;28;20375;-47
2023/12/03 01:32:06;;;;;;;;;;;;;;;;;;5135400;28;19978;-46
2023/12/03 01:34:32;;;;;;;;;;;;;;;;;;5135086;28;20036;-47
2023/12/03 01:36:57;;;;;;;;;;;;;;;;;;5134947;28;20369;-46
2023/12/03 01:39:23;;;;;;;;;;;;;;;;;;5134755;28;19924;-46
2023/12/03 01:41:48;;;;;;;;;;;;;;;;;;5134243;27;20031;-47
2023/12/03 01:44:14;;;;;;;;;;;;;;;;;;5133999;28;20002;-46
2023/12/03 01:46:39;;;;;;;;;;;;;;;;;;5135058;28;19967;-45
2023/12/03 01:49:04;;;;;;;;;;;;;;;;;;5134670;28;19975;-44
2023/12/03 01:51:30;;;;;;;;;;;;;;;;;;5134912;28;19954;-49
2023/12/03 01:53:56;;;;;;;;;;;;;;;;;;5135239;28;20339;-47
2023/12/03 01:56:21;;;;;;;;;;;;;;;;;;5134632;28;19934;-43
2023/12/03 01:58:47;;;;;;;;;;;;;;;;;;5134463;28;19964;-45
2023/12/03 02:01:12;;;;;;;;;;;;;;;;;;5134222;28;19982;-42
2023/12/03 02:03:38;;;;;;;;;;;;;;;;;;5133795;28;19935;-43
2023/12/03 02:06:04;;;;;;;;;;;;;;;;;;5134495;28;19927;-46
2023/12/03 02:08:29;;;;;;;;;;;;;;;;;;5134075;28;20312;-45
2023/12/03 02:10:55;;;;;;;;;;;;;;;;;;5134742;28;19965;-46
2023/12/03 02:13:20;;;;;;;;;;;;;;;;;;5134499;28;20010;-42
2023/12/03 02:15:46;;;;;;;;;;;;;;;;;;5134569;28;20361;-44
2023/12/03 02:18:11;;;;;;;;;;;;;;;;;;5134504;28;19923;-45
2023/12/03 02:20:37;;;;;;;;;;;;;;;;;;5134326;28;20006;-47
2023/12/03 02:23:02;;;;;;;;;;;;;;;;;;5133920;28;19967;-44
2023/12/03 02:25:28;;;;;;;;;;;;;;;;;;5133617;28;19927;-48
2023/12/03 02:27:53;;;;;;;;;;;;;;;;;;5133477;28;20014;-45
2023/12/03 02:30:18;;;;;;;;;;;;;;;;;;5134236;28;19924;-46
2023/12/03 02:32:44;;;;;;;;;;;;;;;;;;5134191;28;19923;-44
2023/12/03 02:35:09;;;;;;;;;;;;;;;;;;5134140;28;19930;-46
2023/12/03 02:37:35;;;;;;;;;;;;;;;;;;5134000;28;20422;-46
2023/12/03 02:40:01;;;;;;;;;;;;;;;;;;5133829;28;19982;-47
2023/12/03 02:42:26;;;;;;;;;;;;;;;;;;5134121;28;19924;-47
2023/12/03 02:44:52;;;;;;;;;;;;;;;;;;5133539;28;20015;-45
2023/12/03 02:47:17;;;;;;;;;;;;;;;;;;5133805;28;19973;-46
2023/12/03 02:49:42;;;;;;;;;;;;;;;;;;5133922;28;20449;-45
2023/12/03 02:52:09;;;;;;;;;;;;;;;;;;5133066;27;20378;-44
2023/12/03 02:54:35;;;;;;;;;;;;;;;;;;5134249;28;19923;-47
2023/12/03 02:57:00;;;;;;;;;;;;;;;;;;5134041;28;19924;-47
2023/12/03 02:59:25;;;;;;;;;;;;;;;;;;5133905;28;20348;-42
2023/12/03 03:01:51;;;;;;;;;;;;;;;;;;5133383;28;20360;-43
2023/12/03 03:04:16;;;;;;;;;;;;;;;;;;5133206;28;19927;-42
2023/12/03 03:06:42;;;;;;;;;;;;;;;;;;5133258;28;19998;-45
2023/12/03 03:09:07;;;;;;;;;;;;;;;;;;5133157;28;19955;-45
2023/12/03 03:11:33;;;;;;;;;;;;;;;;;;5133806;28;19924;-45
2023/12/03 03:13:58;;;;;;;;;;;;;;;;;;5133402;28;19966;-44
2023/12/03 03:16:26;;;;;;;;;;;;;;;;;;5133774;28;20034;-44
2023/12/03 03:18:52;;;;;;;;;;;;;;;;;;5133677;28;19972;-43
2023/12/03 03:21:17;;;;;;;;;;;;;;;;;;5133769;28;19931;-46
2023/12/03 03:23:43;;;;;;;;;;;;;;;;;;5132865;28;19963;-45
2023/12/03 03:26:08;;;;;;;;;;;;;;;;;;5131993;28;19978;-44
2023/12/03 03:28:33;;;;;;;;;;;;;;;;;;5132296;28;19924;-42
2023/12/03 03:30:59;;;;;;;;;;;;;;;;;;5132543;28;19938;-42
2023/12/03 03:33:24;;;;;;;;;;;;;;;;;;5133411;28;19930;-42
2023/12/03 03:35:50;;;;;;;;;;;;;;;;;;5133063;28;20377;-43
2023/12/03 03:38:15;;;;;;;;;;;;;;;;;;5132938;28;19928;-46
2023/12/03 03:40:41;;;;;;;;;;;;;;;;;;5133467;28;20017;-44
2023/12/03 03:43:06;;;;;;;;;;;;;;;;;;5133150;28;19928;-43
2023/12/03 03:45:32;;;;;;;;;;;;;;;;;;5132232;28;20473;-42
2023/12/03 03:47:58;;;;;;;;;;;;;;;;;;5132703;28;19996;-44
2023/12/03 03:50:23;;;;;;;;;;;;;;;;;;5132841;28;19928;-45
2023/12/03 03:52:49;;;;;;;;;;;;;;;;;;5133251;28;19973;-44
2023/12/03 03:55:14;;;;;;;;;;;;;;;;;;5133311;28;19923;-44
2023/12/03 03:57:40;;;;;;;;;;;;;;;;;;5132989;28;20010;-44
2023/12/03 04:00:05;;;;;;;;;;;;;;;;;;5132943;28;19962;-45
2023/12/03 04:02:31;;;;;;;;;;;;;;;;;;5132658;28;19924;-42
2023/12/03 04:04:57;;;;;;;;;;;;;;;;;;5133784;28;20295;-42
2023/12/03 04:07:22;;;;;;;;;;;;;;;;;;5136069;28;19931;-42
2023/12/03 04:09:48;;;;;;;;;;;;;;;;;;5135977;28;19931;-42
2023/12/03 04:12:14;;;;;;;;;;;;;;;;;;5136385;28;19973;-42
2023/12/03 04:14:39;;;;;;;;;;;;;;;;;;5136340;28;19931;-44
2023/12/03 04:17:05;;;;;;;;;;;;;;;;;;5136560;28;19923;-43
2023/12/03 04:19:30;;;;;;;;;;;;;;;;;;5136477;28;20019;-43
2023/12/03 04:21:56;;;;;;;;;;;;;;;;;;5136741;28;19970;-46
2023/12/03 04:24:21;;;;;;;;;;;;;;;;;;5136006;28;19931;-42
2023/12/03 04:26:47;;;;;;;;;;;;;;;;;;5135638;28;19931;-42
2023/12/03 04:29:12;;;;;;;;;;;;;;;;;;5124111;28;19927;-46
2023/12/03 04:31:37;;;;;;;;;;;;;;;;;;5133349;28;19985;-46
2023/12/03 04:34:03;;;;;;;;;;;;;;;;;;5136179;28;19923;-42
2023/12/03 04:36:28;;;;;;;;;;;;;;;;;;5136394;28;19981;-42
2023/12/03 04:38:54;;;;;;;;;;;;;;;;;;5135588;28;20040;-44
2023/12/03 04:41:19;;;;;;;;;;;;;;;;;;5136267;28;20374;-42
2023/12/03 04:43:45;;;;;;;;;;;;;;;;;;5135575;28;19975;-42
2023/12/03 04:46:10;;;;;;;;;;;;;;;;;;5135239;28;20371;-43
2023/12/03 04:48:36;;;;;;;;;;;;;;;;;;5135281;28;20085;-42
2023/12/03 04:51:02;;;;;;;;;;;;;;;;;;5135865;28;20325;-44
2023/12/03 04:53:27;;;;;;;;;;;;;;;;;;5135938;28;19952;-42
2023/12/03 04:55:53;;;;;;;;;;;;;;;;;;5136035;28;20014;-44
2023/12/03 04:58:18;;;;;;;;;;;;;;;;;;5136084;28;20419;-45
2023/12/03 05:00:44;;;;;;;;;;;;;;;;;;5135990;28;20014;-47
2023/12/03 05:03:09;;;;;;;;;;;;;;;;;;5135525;28;19966;-44
2023/12/03 05:05:35;;;;;;;;;;;;;;;;;;5134375;28;19959;-42
2023/12/03 05:08:00;;;;;;;;;;;;;;;;;;5135016;28;20010;-42
2023/12/03 05:10:26;;;;;;;;;;;;;;;;;;5134875;28;19955;-43
2023/12/03 05:12:51;;;;;;;;;;;;;;;;;;5135402;28;19924;-45
2023/12/03 05:15:16;;;;;;;;;;;;;;;;;;5134415;27;20015;-42
2023/12/03 05:17:42;;;;;;;;;;;;;;;;;;5135734;28;19976;-45
2023/12/03 05:20:07;;;;;;;;;;;;;;;;;;5135602;28;20081;-44
2023/12/03 05:22:33;;;;;;;;;;;;;;;;;;5135680;28;20491;-44
2023/12/03 05:24:59;;;;;;;;;;;;;;;;;;5134596;28;20349;-42
2023/12/03 05:27:24;;;;;;;;;;;;;;;;;;5134935;28;20022;-43
2023/12/03 05:29:49;;;;;;;;;;;;;;;;;;5134536;28;20014;-44
2023/12/03 05:32:15;;;;;;;;;;;;;;;;;;5134747;28;20370;-41
2023/12/03 05:34:41;;;;;;;;;;;;;;;;;;5114447;28;19947;-41
2023/12/03 05:37:07;;;;;;;;;;;;;;;;;;5114760;28;20382;-46
2023/12/03 05:39:32;;;;;;;;;;;;;;;;;;5114301;28;19981;-43
2023/12/03 05:41:58;;;;;;;;;;;;;;;;;;5114964;28;19928;-43
2023/12/03 05:44:23;;;;;;;;;;;;;;;;;;5114094;28;20320;-42
2023/12/03 05:46:48;;;;;;;;;;;;;;;;;;5113615;28;19933;-43
2023/12/03 05:49:14;;;;;;;;;;;;;;;;;;5113553;28;19924;-42
2023/12/03 05:51:39;;;;;;;;;;;;;;;;;;5114184;28;19996;-42
2023/12/03 05:54:05;;;;;;;;;;;;;;;;;;5114566;28;20022;-42
2023/12/03 05:56:30;;;;;;;;;;;;;;;;;;5114605;28;19923;-44
2023/12/03 05:58:56;;;;;;;;;;;;;;;;;;5114489;28;19962;-43
2023/12/03 06:01:22;;;;;;;;;;;;;;;;;;5114634;28;20373;-42
2023/12/03 06:03:48;;;;;;;;;;;;;;;;;;5114434;28;20004;-45
2023/12/03 06:06:13;;;;;;;;;;;;;;;;;;5119230;28;19935;-45
2023/12/03 06:08:39;;;;;;;;;;;;;;;;;;5133583;28;20022;-45
2023/12/03 06:11:04;;;;;;;;;;;;;;;;;;5134329;28;20014;-42
2023/12/03 06:13:30;;;;;;;;;;;;;;;;;;5134283;28;19923;-44
2023/12/03 06:15:55;;;;;;;;;;;;;;;;;;5134353;28;20018;-42
2023/12/03 06:18:21;;;;;;;;;;;;;;;;;;5134625;28;19954;-42
2023/12/03 06:20:46;;;;;;;;;;;;;;;;;;5134677;28;19923;-43
2023/12/03 06:23:12;;;;;;;;;;;;;;;;;;5134671;28;19959;-43
2023/12/03 06:25:38;;;;;;;;;;;;;;;;;;5134073;28;20163;-46
2023/12/03 06:28:03;;;;;;;;;;;;;;;;;;5133872;27;19988;-43
2023/12/03 06:30:29;;;;;;;;;;;;;;;;;;5133763;28;20030;-43
2023/12/03 06:32:55;;;;;;;;;;;;;;;;;;5133899;28;20018;-44
2023/12/03 06:35:20;;;;;;;;;;;;;;;;;;5133900;28;19923;-42
2023/12/03 06:37:46;;;;;;;;;;;;;;;;;;5134359;28;19930;-46
2023/12/03 06:40:11;;;;;;;;;;;;;;;;;;5133903;28;19923;-42
2023/12/03 06:42:37;;;;;;;;;;;;;;;;;;5134321;28;19923;-45
2023/12/03 06:45:02;;;;;;;;;;;;;;;;;;5133578;28;19923;-43
2023/12/03 06:47:27;;;;;;;;;;;;;;;;;;5133345;28;19966;-47
2023/12/03 06:49:53;;;;;;;;;;;;;;;;;;5133001;28;20017;-42
2023/12/03 06:52:19;;;;;;;;;;;;;;;;;;5133749;28;20013;-43
2023/12/03 06:54:44;;;;;;;;;;;;;;;;;;5133739;28;20002;-45
2023/12/03 06:57:09;;;;;;;;;;;;;;;;;;5133778;28;20337;-45
2023/12/03 06:59:35;;;;;;;;;;;;;;;;;;5133806;28;20018;-47
2023/12/03 07:02:00;;;;;;;;;;;;;;;;;;5134079;28;20394;-46
2023/12/03 07:04:26;;;;;;;;;;;;;;;;;;5133901;28;19962;-44
2023/12/03 07:06:51;;;;;;;;;;;;;;;;;;5133023;28;20060;-42
2023/12/03 07:09:17;;;;;;;;;;;;;;;;;;5132036;28;19927;-45
2023/12/03 07:12:02;;;;;;;;;;;;;;;;;;5133365;28;20079;-44
2023/12/03 07:14:27;;;;;;;;;;;;;;;;;;5133067;28;20006;-43
2023/12/03 07:16:53;;;;;;;;;;;;;;;;;;5133861;28;19958;-45
2023/12/03 07:19:18;;;;;;;;;;;;;;;;;;5133512;28;20412;-47
2023/12/03 07:21:44;;;;;;;;;;;;;;;;;;5133366;28;19970;-46
2023/12/03 07:24:09;;;;;;;;;;;;;;;;;;5133275;28;20416;-46
2023/12/03 07:26:35;;;;;;;;;;;;;;;;;;5132659;28;20418;-43
2023/12/03 07:29:00;;;;;;;;;;;;;;;;;;5133087;28;19947;-46
2023/12/03 07:31:25;;;;;;;;;;;;;;;;;;5133092;28;20011;-46
2023/12/03 07:33:51;;;;;;;;;;;;;;;;;;5132903;28;19962;-44
2023/12/03 07:36:16;;;;;;;;;;;;;;;;;;5132483;28;19982;-45
2023/12/03 07:38:42;;;;;;;;;;;;;;;;;;5132068;27;19924;-47
2023/12/03 07:41:07;;;;;;;;;;;;;;;;;;5132571;28;19923;-45
2023/12/03 07:43:33;;;;;;;;;;;;;;;;;;5132930;28;19923;-46
2023/12/03 07:45:58;;;;;;;;;;;;;;;;;;5132824;28;19934;-45
2023/12/03 07:48:24;;;;;;;;;;;;;;;;;;5132289;28;19928;-46
2023/12/03 07:50:49;;;;;;;;;;;;;;;;;;5132532;28;20370;-45
2023/12/03 07:53:15;;;;;;;;;;;;;;;;;;5132714;28;19972;-45
2023/12/03 07:55:40;;;;;;;;;;;;;;;;;;5133351;28;19958;-44
2023/12/03 07:58:06;;;;;;;;;;;;;;;;;;5133422;28;20341;-45
2023/12/03 08:00:32;;;;;;;;;;;;;;;;;;5133179;28;19923;-45
2023/12/03 08:02:57;;;;;;;;;;;;;;;;;;5133290;28;19974;-46
2023/12/03 08:05:23;;;;;;;;;;;;;;;;;;5133327;28;20031;-48
2023/12/03 08:07:48;;;;;;;;;;;;;;;;;;5132140;28;20070;-46
2023/12/03 08:10:14;;;;;;;;;;;;;;;;;;5131535;28;20026;-47
2023/12/03 08:12:39;;;;;;;;;;;;;;;;;;5132423;28;20083;-46
2023/12/03 08:15:05;;;;;;;;;;;;;;;;;;5132062;28;19930;-45
2023/12/03 08:17:30;;;;;;;;;;;;;;;;;;5132850;28;20407;-44
2023/12/03 08:19:56;;;;;;;;;;;;;;;;;;5132535;28;20303;-47
2023/12/03 08:22:21;;;;;;;;;;;;;;;;;;5132736;28;20002;-46
2023/12/03 08:24:46;;;;;;;;;;;;;;;;;;5132972;28;19924;-44
2023/12/03 08:27:12;;;;;;;;;;;;;;;;;;5132468;28;20014;-47
2023/12/03 08:29:38;;;;;;;;;;;;;;;;;;5132128;28;20091;-48
2023/12/03 08:32:03;;;;;;;;;;;;;;;;;;5132361;28;19923;-45
2023/12/03 08:34:29;;;;;;;;;;;;;;;;;;5132270;28;19935;-46
2023/12/03 08:36:55;;;;;;;;;;;;;;;;;;5132498;28;20053;-47
2023/12/03 08:39:20;;;;;;;;;;;;;;;;;;5131398;28;19923;-46
2023/12/03 08:41:46;;;;;;;;;;;;;;;;;;5132580;28;20335;-45
2023/12/03 08:44:11;;;;;;;;;;;;;;;;;;5132243;28;19967;-46
2023/12/03 08:46:37;;;;;;;;;;;;;;;;;;5132410;28;20025;-46
2023/12/03 08:49:02;;;;;;;;;;;;;;;;;;5131792;27;19971;-46
2023/12/03 08:51:28;;;;;;;;;;;;;;;;;;5134307;28;19927;-47
2023/12/03 08:53:55;;;;;;;;;;;;;;;;;;5135576;28;20036;-47
2023/12/03 08:56:20;;;;;;;;;;;;;;;;;;5136142;28;20393;-44
2023/12/03 08:58:46;;;;;;;;;;;;;;;;;;5135685;28;19924;-44
2023/12/03 09:01:11;;;;;;;;;;;;;;;;;;5135745;28;20320;-42
2023/12/03 09:03:40;;;;;;;;;;;;;;;;;;5136120;28;19923;-47
2023/12/03 09:06:05;;;;;;;;;;;;;;;;;;5136042;28;19931;-44
2023/12/03 09:08:31;;;;;;;;;;;;;;;;;;5134807;28;20022;-46
2023/12/03 09:10:57;;;;;;;;;;;;;;;;;;5134653;28;19923;-42
2023/12/03 09:13:22;;;;;;;;;;;;;;;;;;5134734;28;20430;-44
2023/12/03 09:15:48;;;;;;;;;;;;;;;;;;5135345;28;20093;-41
2023/12/03 09:18:13;;;;;;;;;;;;;;;;;;5135476;28;20068;-42
2023/12/03 09:20:39;;;;;;;;;;;;;;;;;;5135360;28;19938;-42
2023/12/03 09:23:07;;;;;;;;;;;;;;;;;;5135565;28;19923;-41
2023/12/03 09:25:33;;;;;;;;;;;;;;;;;;5135709;28;20314;-43
2023/12/03 09:27:58;;;;;;;;;;;;;;;;;;5135126;28;19923;-41
2023/12/03 09:30:24;;;;;;;;;;;;;;;;;;5134822;28;19924;-43
2023/12/03 09:32:49;;;;;;;;;;;;;;;;;;5135281;28;20033;-44
2023/12/03 09:35:15;;;;;;;;;;;;;;;;;;5135154;28;19934;-44
2023/12/03 09:37:40;;;;;;;;;;;;;;;;;;5134732;28;19923;-44
2023/12/03 09:40:06;;;;;;;;;;;;;;;;;;5133469;28;19964;-45
2023/12/03 09:42:31;;;;;;;;;;;;;;;;;;5134779;28;19927;-42
2023/12/03 09:44:56;;;;;;;;;;;;;;;;;;5134434;28;20323;-45
2023/12/03 09:47:22;;;;;;;;;;;;;;;;;;5134367;28;19978;-46
2023/12/03 09:49:48;;;;;;;;;;;;;;;;;;5134082;28;19974;-46
2023/12/03 09:52:13;;;;;;;;;;;;;;;;;;5134617;28;19928;-45
2023/12/03 09:54:39;;;;;;;;;;;;;;;;;;5134282;28;19972;-45
2023/12/03 09:57:06;;;;;;;;;;;;;;;;;;5135112;28;20426;-44
2023/12/03 09:59:31;;;;;;;;;;;;;;;;;;5135191;28;19928;-45
2023/12/03 10:01:56;;;;;;;;;;;;;;;;;;5134616;27;19924;-44
2023/12/03 10:04:22;;;;;;;;;;;;;;;;;;5135204;28;19974;-46
2023/12/03 10:06:47;;;;;;;;;;;;;;;;;;5134480;28;19931;-44
2023/12/03 10:09:13;;;;;;;;;;;;;;;;;;5133912;28;19984;-45
2023/12/03 10:11:39;;;;;;;;;;;;;;;;;;5133695;28;20365;-46
2023/12/03 10:14:06;;;;;;;;;;;;;;;;;;5133347;28;19930;-48
2023/12/03 10:16:32;;;;;;;;;;;;;;;;;;5134719;28;19924;-46
2023/12/03 10:18:57;;;;;;;;;;;;;;;;;;5134717;28;20281;-46
2023/12/03 10:21:24;;;;;;;;;;;;;;;;;;5134682;28;19924;-43
2023/12/03 10:23:50;;;;;;;;;;;;;;;;;;5134310;28;19935;-45
2023/12/03 10:26:15;;;;;;;;;;;;;;;;;;5134520;28;19954;-47
2023/12/03 10:28:41;;;;;;;;;;;;;;;;;;5133464;28;19930;-45
2023/12/03 10:31:06;;;;;;;;;;;;;;;;;;5133647;28;19931;-43
2023/12/03 10:33:32;;;;;;;;;;;;;;;;;;5134259;28;20022;-42
2023/12/03 10:35:57;;;;;;;;;;;;;;;;;;5134259;28;20018;-42
2023/12/03 10:38:23;;;;;;;;;;;;;;;;;;5133781;28;20066;-44
2023/12/03 10:40:48;;;;;;;;;;;;;;;;;;5133821;28;19967;-43
2023/12/03 10:43:14;;;;;;;;;;;;;;;;;;5134129;28;19927;-44
2023/12/03 10:45:39;;;;;;;;;;;;;;;;;;5133942;28;20010;-44
2023/12/03 10:48:05;;;;;;;;;;;;;;;;;;5133658;28;20061;-43
2023/12/03 10:50:30;;;;;;;;;;;;;;;;;;5133513;28;20011;-45
2023/12/03 10:52:56;;;;;;;;;;;;;;;;;;5133602;28;19953;-45
2023/12/03 10:55:21;;;;;;;;;;;;;;;;;;5133772;28;20011;-45
2023/12/03 10:57:50;;;;;;;;;;;;;;;;;;5134200;28;19935;-46
2023/12/03 11:00:17;;;;;;;;;;;;;;;;;;5134142;28;19969;-45
2023/12/03 11:02:43;;;;;;;;;;;;;;;;;;5133953;28;20432;-44
2023/12/03 11:05:08;;;;;;;;;;;;;;;;;;5134253;28;19970;-45
2023/12/03 11:07:34;;;;;;;;;;;;;;;;;;5133893;28;20065;-47
2023/12/03 11:09:59;;;;;;;;;;;;;;;;;;5132831;28;19939;-43
2023/12/03 11:12:25;;;;;;;;;;;;;;;;;;5132459;27;19923;-45
2023/12/03 11:14:51;;;;;;;;;;;;;;;;;;5132243;28;19931;-46
2023/12/03 11:17:16;;;;;;;;;;;;;;;;;;5133445;28;19955;-43
2023/12/03 11:19:42;;;;;;;;;;;;;;;;;;5133634;28;19931;-44
2023/12/03 11:22:13;;;;;;;;;;;;;;;;;;5133332;28;19924;-44
2023/12/03 11:24:38;;;;;;;;;;;;;;;;;;5133757;28;20274;-44
2023/12/03 11:27:04;;;;;;;;;;;;;;;;;;5133740;28;19982;-42
2023/12/03 11:29:29;;;;;;;;;;;;;;;;;;5132824;28;20014;-45
2023/12/03 11:31:54;;;;;;;;;;;;;;;;;;5133036;28;19923;-42
2023/12/03 11:34:21;;;;;;;;;;;;;;;;;;5132651;28;22299;-43
2023/12/03 11:36:48;;;;;;;;;;;;;;;;;;5133192;28;19962;-44
2023/12/03 11:39:19;;;;;;;;;;;;;;;;;;5132649;28;19924;-45
2023/12/03 11:41:44;;;;;;;;;;;;;;;;;;5133008;28;19924;-45
2023/12/03 11:44:10;;;;;;;;;;;;;;;;;;5132556;28;20023;-44
2023/12/03 11:46:35;;;;;;;;;;;;;;;;;;5133162;28;19971;-46
2023/12/03 11:49:01;;;;;;;;;;;;;;;;;;5132405;28;20006;-46
2023/12/03 11:51:26;;;;;;;;;;;;;;;;;;5132620;28;19998;-44
2023/12/03 11:53:52;;;;;;;;;;;;;;;;;;5132917;28;19977;-45
2023/12/03 11:56:19;;;;;;;;;;;;;;;;;;5132962;28;20026;-45
2023/12/03 11:58:44;;;;;;;;;;;;;;;;;;5132974;28;19924;-44
2023/12/03 12:01:10;;;;;;;;;;;;;;;;;;5132890;28;20007;-45
2023/12/03 12:03:36;;;;;;;;;;;;;;;;;;5133265;28;20015;-44
2023/12/03 12:06:01;;;;;;;;;;;;;;;;;;5133435;28;19966;-46
2023/12/03 12:08:27;;;;;;;;;;;;;;;;;;5132536;28;19923;-45
2023/12/03 12:10:52;;;;;;;;;;;;;;;;;;5132532;28;19923;-46
2023/12/03 12:13:19;;;;;;;;;;;;;;;;;;5132458;28;19923;-46
2023/12/03 12:15:45;;;;;;;;;;;;;;;;;;5132198;28;19934;-44
2023/12/03 12:18:10;;;;;;;;;;;;;;;;;;5132241;28;20010;-43
2023/12/03 12:20:36;;;;;;;;;;;;;;;;;;5133013;28;20014;-46
2023/12/03 12:23:01;;;;;;;;;;;;;;;;;;5132866;28;19924;-44
2023/12/03 12:25:26;;;;;;;;;;;;;;;;;;5135270;27;19924;-43
2023/12/03 12:27:52;;;;;;;;;;;;;;;;;;5136334;28;20034;-46
2023/12/03 12:30:17;;;;;;;;;;;;;;;;;;5136020;28;19927;-47
2023/12/03 12:32:55;;;;;;;;;;;;;;;;;;5136024;28;19924;-46
2023/12/03 12:35:22;;;;;;;;;;;;;;;;;;5136093;28;19930;-44
2023/12/03 12:37:48;;;;;;;;;;;;;;;;;;5135809;28;19924;-45
2023/12/03 12:40:15;;;;;;;;;;;;;;;;;;5135829;28;19976;-45
2023/12/03 12:42:42;;;;;;;;;;;;;;;;;;5135431;28;19991;-47
2023/12/03 12:45:07;;;;;;;;;;;;;;;;;;5135396;28;19931;-46
2023/12/03 12:47:33;;;;;;;;;;;;;;;;;;5136081;28;19977;-44
2023/12/03 12:49:59;;;;;;;;;;;;;;;;;;5135574;28;19966;-45
2023/12/03 12:52:25;;;;;;;;;;;;;;;;;;5135500;28;19924;-45
2023/12/03 12:54:50;;;;;;;;;;;;;;;;;;5135745;28;19930;-44
2023/12/03 12:57:16;;;;;;;;;;;;;;;;;;5135853;28;19975;-44
2023/12/03 12:59:41;;;;;;;;;;;;;;;;;;5135911;28;19931;-45
2023/12/03 13:02:07;;;;;;;;;;;;;;;;;;5136086;28;19923;-44
2023/12/03 13:04:33;;;;;;;;;;;;;;;;;;5136116;28;19970;-44
2023/12/03 13:06:59;;;;;;;;;;;;;;;;;;5135910;28;20302;-46
2023/12/03 13:09:24;;;;;;;;;;;;;;;;;;5135064;28;20397;-45
2023/12/03 13:11:50;;;;;;;;;;;;;;;;;;5134995;28;19961;-44
2023/12/03 13:14:15;;;;;;;;;;;;;;;;;;5134935;28;19927;-43
2023/12/03 13:16:41;;;;;;;;;;;;;;;;;;5135359;28;19928;-44
2023/12/03 13:19:07;;;;;;;;;;;;;;;;;;5134900;28;19978;-46
2023/12/03 13:21:32;;;;;;;;;;;;;;;;;;5135696;28;19927;-47
2023/12/03 13:23:58;;;;;;;;;;;;;;;;;;5135590;28;19930;-46
2023/12/03 13:26:30;;;;;;;;;;;;;;;;;;5135743;28;19931;-48
2023/12/03 13:28:55;;;;;;;;;;;;;;;;;;5135504;28;19966;-44
2023/12/03 13:31:21;;;;;;;;;;;;;;;;;;5134972;28;19930;-45
2023/12/03 13:33:46;;;;;;;;;;;;;;;;;;5135130;28;19959;-44
2023/12/03 13:36:13;;;;;;;;;;;;;;;;;;5134307;27;20014;-45
2023/12/03 13:38:40;;;;;;;;;;;;;;;;;;5134495;28;20369;-42
2023/12/03 13:41:05;;;;;;;;;;;;;;;;;;5135302;28;19924;-46
2023/12/03 13:43:31;;;;;;;;;;;;;;;;;;5134662;28;20050;-44
2023/12/03 13:45:56;;;;;;;;;;;;;;;;;;5134585;28;20002;-47
2023/12/03 13:48:22;;;;;;;;;;;;;;;;;;5134841;28;20386;-46
2023/12/03 13:50:47;;;;;;;;;;;;;;;;;;5134486;28;19976;-44
2023/12/03 13:53:14;;;;;;;;;;;;;;;;;;5134460;28;20321;-43
2023/12/03 13:55:39;;;;;;;;;;;;;;;;;;5134981;28;19923;-45
2023/12/03 13:58:05;;;;;;;;;;;;;;;;;;5134807;28;20008;-45
2023/12/03 14:00:30;;;;;;;;;;;;;;;;;;5134604;28;20323;-44
2023/12/03 14:02:56;;;;;;;;;;;;;;;;;;5134627;28;19973;-46
2023/12/03 14:05:21;;;;;;;;;;;;;;;;;;5134145;28;19967;-44
2023/12/03 14:07:52;;;;;;;;;;;;;;;;;;5134175;28;20022;-44
2023/12/03 14:10:17;;;;;;;;;;;;;;;;;;5133805;28;19924;-42
2023/12/03 14:12:43;;;;;;;;;;;;;;;;;;5133804;28;20346;-46
2023/12/03 14:15:09;;;;;;;;;;;;;;;;;;5134041;28;19924;-46
2023/12/03 14:17:35;;;;;;;;;;;;;;;;;;5134391;28;19934;-42
2023/12/03 14:20:00;;;;;;;;;;;;;;;;;;5133626;28;19927;-47
2023/12/03 14:22:26;;;;;;;;;;;;;;;;;;5134621;28;20328;-45
2023/12/03 14:24:52;;;;;;;;;;;;;;;;;;5134277;28;20010;-43
2023/12/03 14:27:17;;;;;;;;;;;;;;;;;;5134400;28;19975;-45
2023/12/03 14:29:43;;;;;;;;;;;;;;;;;;5133724;28;19923;-45
2023/12/03 14:32:08;;;;;;;;;;;;;;;;;;5134064;28;19961;-47
2023/12/03 14:34:33;;;;;;;;;;;;;;;;;;5133982;28;19923;-46
2023/12/03 14:36:59;;;;;;;;;;;;;;;;;;5133994;28;19976;-44
2023/12/03 14:39:25;;;;;;;;;;;;;;;;;;5133603;28;19923;-45
2023/12/03 14:41:50;;;;;;;;;;;;;;;;;;5134117;28;19924;-46
2023/12/03 14:44:17;;;;;;;;;;;;;;;;;;5133298;28;20379;-45
2023/12/03 14:46:43;;;;;;;;;;;;;;;;;;5133613;28;19958;-44
2023/12/03 14:49:09;;;;;;;;;;;;;;;;;;5132816;27;19923;-48
2023/12/03 14:51:36;;;;;;;;;;;;;;;;;;5132973;28;19930;-46
2023/12/03 14:54:03;;;;;;;;;;;;;;;;;;5132186;28;19935;-46
2023/12/03 14:56:28;;;;;;;;;;;;;;;;;;5133751;28;19924;-42
2023/12/03 14:58:54;;;;;;;;;;;;;;;;;;5133642;28;19998;-43
2023/12/03 15:01:19;;;;;;;;;;;;;;;;;;5134123;28;20560;-43
2023/12/03 15:03:45;;;;;;;;;;;;;;;;;;5133269;28;20373;-41
2023/12/03 15:06:10;;;;;;;;;;;;;;;;;;5133343;28;20060;-46
2023/12/03 15:08:36;;;;;;;;;;;;;;;;;;5133270;28;19923;-43
2023/12/03 15:11:02;;;;;;;;;;;;;;;;;;5133258;28;20363;-45
2023/12/03 15:13:28;;;;;;;;;;;;;;;;;;5133077;28;19931;-43
2023/12/03 15:15:53;;;;;;;;;;;;;;;;;;5133113;28;19966;-45
2023/12/03 15:18:19;;;;;;;;;;;;;;;;;;5133378;28;19970;-46
2023/12/03 15:20:44;;;;;;;;;;;;;;;;;;5133186;28;19971;-46
2023/12/03 15:23:10;;;;;;;;;;;;;;;;;;5133417;28;19927;-43
2023/12/03 15:25:35;;;;;;;;;;;;;;;;;;5133697;28;19955;-47
2023/12/03 15:28:01;;;;;;;;;;;;;;;;;;5132932;28;19927;-45
2023/12/03 15:30:26;;;;;;;;;;;;;;;;;;5132948;28;19923;-46
2023/12/03 15:32:54;;;;;;;;;;;;;;;;;;5133184;28;19923;-46
2023/12/03 15:35:20;;;;;;;;;;;;;;;;;;5133020;28;19985;-42
2023/12/03 15:37:49;;;;;;;;;;;;;;;;;;5133048;28;20363;-44
2023/12/03 15:40:15;;;;;;;;;;;;;;;;;;5132298;28;19931;-45
2023/12/03 15:42:41;;;;;;;;;;;;;;;;;;5133477;28;20290;-45
2023/12/03 15:45:06;;;;;;;;;;;;;;;;;;5133032;28;19930;-46
2023/12/03 15:47:32;;;;;;;;;;;;;;;;;;5133473;28;20010;-44
2023/12/03 15:49:57;;;;;;;;;;;;;;;;;;5132962;27;19958;-46
2023/12/03 15:52:24;;;;;;;;;;;;;;;;;;5132704;28;20021;-46
2023/12/03 15:54:49;;;;;;;;;;;;;;;;;;5132863;28;20363;-46
2023/12/03 15:57:16;;;;;;;;;;;;;;;;;;5133034;28;19930;-44
2023/12/03 15:59:41;;;;;;;;;;;;;;;;;;5134218;27;19930;-45
2023/12/03 16:02:07;;;;;;;;;;;;;;;;;;5136878;28;20109;-41
2023/12/03 16:04:32;;;;;;;;;;;;;;;;;;5136636;28;20010;-46
2023/12/03 16:06:58;;;;;;;;;;;;;;;;;;5135739;28;19923;-45
2023/12/03 16:09:23;;;;;;;;;;;;;;;;;;5135885;28;20061;-44
2023/12/03 16:11:52;;;;;;;;;;;;;;;;;;5136030;28;19923;-43
2023/12/03 16:14:18;;;;;;;;;;;;;;;;;;5135786;28;19923;-43
2023/12/03 16:16:44;;;;;;;;;;;;;;;;;;5136190;28;19986;-45
2023/12/03 16:19:10;;;;;;;;;;;;;;;;;;5136462;28;20244;-45
2023/12/03 16:21:36;;;;;;;;;;;;;;;;;;5136732;28;19939;-45
2023/12/03 16:24:02;;;;;;;;;;;;;;;;;;5136219;28;19972;-44
2023/12/03 16:26:27;;;;;;;;;;;;;;;;;;5136659;28;19961;-45
2023/12/03 16:28:53;;;;;;;;;;;;;;;;;;5136600;28;19969;-44
2023/12/03 16:31:18;;;;;;;;;;;;;;;;;;5135567;28;19930;-44
2023/12/03 16:33:44;;;;;;;;;;;;;;;;;;5135998;28;19927;-44
2023/12/03 16:36:10;;;;;;;;;;;;;;;;;;5136009;28;19923;-44